Time,TemperatureF,DewpointF,PressureIn,WindDirection,WindDirectionDegrees,WindSpeedMPH,WindSpeedGustMPH,Humidity,HourlyPrecipIn,Conditions,Clouds,dailyrainin,SoftwareType,DateUTC
2013-11-20 00:02:00,36.4,31.1,30.22,East,96,2.3,2.3,81,0.00,CLR,FEW,0.00,WeatherDisplay:10.37,2013-11-20 06:02:00,
2013-11-20 00:07:00,36.5,31.2,30.22,ENE,74,1.2,1.2,81,0.00,CLR,FEW,0.00,WeatherDisplay:10.37,2013-11-20 06:07:00,
2013-11-20 00:12:00,36.5,31.2,30.22,East,89,2.3,0.0,81,0.00,CLR,FEW,0.00,WeatherDisplay:10.37,2013-11-20 06:12:00,
2013-11-20 00:17:00,36.6,31.3,30.22,ENE,58,3.5,3.5,81,0.00,CLR,FEW,0.00,WeatherDisplay:10.37,2013-11-20 06:17:00,
2013-11-20 00:22:00,36.6,31.3,30.22,East,92,2.3,2.3,81,0.00,CLR,FEW,0.00,WeatherDisplay:10.37,2013-11-20 06:22:00,
2013-11-20 00:27:00,36.5,31.2,30.22,East,90,0.0,0.0,81,0.00,CLR,FEW,0.00,WeatherDisplay:10.37,2013-11-20 06:27:00,
2013-11-20 00:32:00,36.4,31.4,30.22,East,90,0.0,0.0,82,0.00,CLR,FEW,0.00,WeatherDisplay:10.37,2013-11-20 06:32:00,
2013-11-20 00:37:00,36.1,31.1,30.22,East,90,0.0,0.0,82,0.00,CLR,FEW,0.00,WeatherDisplay:10.37,2013-11-20 06:37:00,
2013-11-20 00:42:00,35.9,30.9,30.22,East,89,0.0,0.0,82,0.00,CLR,FEW,0.00,WeatherDisplay:10.37,2013-11-20 06:42:00,
2013-11-20 00:47:00,35.7,30.7,30.22,East,89,0.0,0.0,82,0.00,CLR,FEW,0.00,WeatherDisplay:10.37,2013-11-20 06:47:00,
2013-11-20 00:52:00,35.5,30.8,30.22,East,89,0.0,0.0,83,0.00,CLR,FEW,0.00,WeatherDisplay:10.37,2013-11-20 06:52:00,
2013-11-20 00:57:00,35.3,30.7,30.22,East,89,0.0,0.0,83,0.00,CLR,FEW,0.00,WeatherDisplay:10.37,2013-11-20 06:57:00,
2013-11-20 01:02:00,35.2,30.9,30.22,East,82,1.2,0.0,84,0.00,CLR,FEW,0.00,WeatherDisplay:10.37,2013-11-20 07:02:00,
2013-11-20 01:07:00,35.2,30.9,30.21,East,91,0.0,0.0,84,0.00,CLR,FEW,0.00,WeatherDisplay:10.37,2013-11-20 07:07:00,
2013-11-20 01:12:00,35.1,30.8,30.22,ENE,78,0.0,0.0,84,0.00,CLR,FEW,0.00,WeatherDisplay:10.37,2013-11-20 07:12:00,
2013-11-20 01:17:00,35.1,31.0,30.22,East,80,1.2,0.0,85,0.00,CLR,FEW,0.00,WeatherDisplay:10.37,2013-11-20 07:17:00,
2013-11-20 01:22:00,35.0,30.9,30.22,ENE,77,0.0,0.1,85,0.00,CLR,FEW,0.00,WeatherDisplay:10.37,2013-11-20 07:22:00,
2013-11-20 01:27:00,34.9,30.8,30.22,ENE,77,0.0,0.0,85,0.00,CLR,FEW,0.00,WeatherDisplay:10.37,2013-11-20 07:27:00,
2013-11-20 01:32:00,34.8,31.0,30.22,ENE,77,0.0,0.0,86,0.00,CLR,FEW,0.00,WeatherDisplay:10.37,2013-11-20 07:32:00,
2013-11-20 01:37:00,34.6,30.8,30.23,ENE,77,0.0,0.0,86,0.00,CLR,FEW,0.00,WeatherDisplay:10.37,2013-11-20 07:37:00,
2013-11-20 01:42:00,34.4,30.6,30.23,ENE,77,0.0,0.0,86,0.00,CLR,FEW,0.00,WeatherDisplay:10.37,2013-11-20 07:42:00,
2013-11-20 01:47:00,34.3,30.8,30.22,ENE,77,0.0,0.0,87,0.00,CLR,FEW,0.00,WeatherDisplay:10.37,2013-11-20 07:47:00,
2013-11-20 01:52:00,34.2,30.7,30.23,ENE,77,0.0,0.0,87,0.00,CLR,FEW,0.00,WeatherDisplay:10.37,2013-11-20 07:52:00,
2013-11-20 01:58:00,34.1,30.6,30.23,ENE,77,0.0,0.0,87,0.00,CLR,FEW,0.00,WeatherDisplay:10.37,2013-11-20 07:58:00,
2013-11-20 02:03:00,33.9,30.4,30.23,ENE,77,0.0,0.0,87,0.00,CLR,FEW,0.00,WeatherDisplay:10.37,2013-11-20 08:03:00,
2013-11-20 02:08:00,33.8,30.6,30.23,ENE,69,0.0,0.0,88,0.00,CLR,FEW,0.00,WeatherDisplay:10.37,2013-11-20 08:08:00,
2013-11-20 02:13:00,33.7,30.5,30.23,ENE,69,0.0,0.0,88,0.00,CLR,FEW,0.00,WeatherDisplay:10.37,2013-11-20 08:13:00,
2013-11-20 02:18:00,33.6,30.7,30.24,ENE,69,0.0,0.0,89,0.00,CLR,FEW,0.00,WeatherDisplay:10.37,2013-11-20 08:18:00,
2013-11-20 02:23:00,33.5,30.6,30.24,ENE,69,0.0,0.0,89,0.00,CLR,FEW,0.00,WeatherDisplay:10.37,2013-11-20 08:23:00,
2013-11-20 02:28:00,33.4,30.5,30.23,ENE,69,0.0,0.0,89,0.00,CLR,FEW,0.00,WeatherDisplay:10.37,2013-11-20 08:28:00,
2013-11-20 02:33:00,33.3,30.4,30.24,ENE,69,0.0,0.0,89,0.00,CLR,FEW,0.00,WeatherDisplay:10.37,2013-11-20 08:33:00,
2013-11-20 02:38:00,33.3,30.4,30.24,ENE,69,0.0,0.0,89,0.00,CLR,FEW,0.00,WeatherDisplay:10.37,2013-11-20 08:38:00,
2013-11-20 02:43:00,33.3,30.4,30.24,ENE,69,0.0,0.0,89,0.00,CLR,FEW,0.00,WeatherDisplay:10.37,2013-11-20 08:43:00,
2013-11-20 02:48:00,33.1,30.2,30.24,ENE,69,0.0,0.0,89,0.00,CLR,FEW,0.00,WeatherDisplay:10.37,2013-11-20 08:48:00,
2013-11-20 02:53:00,33.0,30.1,30.24,ENE,69,0.0,0.0,89,0.00,CLR,FEW,0.00,WeatherDisplay:10.37,2013-11-20 08:53:00,
2013-11-20 02:58:00,32.9,30.3,30.24,ENE,69,0.0,0.0,90,0.00,CLR,FEW,0.00,WeatherDisplay:10.37,2013-11-20 08:58:00,
2013-11-20 03:03:00,32.8,30.2,30.24,ENE,69,0.0,0.0,90,0.00,CLR,FEW,0.00,WeatherDisplay:10.37,2013-11-20 09:03:00,
2013-11-20 03:08:00,32.8,30.2,30.24,ENE,69,0.0,0.0,90,0.00,CLR,FEW,0.00,WeatherDisplay:10.37,2013-11-20 09:08:00,
2013-11-20 03:13:00,32.7,30.1,30.23,East,92,0.0,0.1,90,0.00,CLR,FEW,0.00,WeatherDisplay:10.37,2013-11-20 09:13:00,
2013-11-20 03:18:00,32.6,30.0,30.23,East,92,0.0,0.0,90,0.00,CLR,FEW,0.00,WeatherDisplay:10.37,2013-11-20 09:18:00,
2013-11-20 03:23:00,32.4,29.8,30.23,East,94,0.0,0.0,90,0.00,CLR,FEW,0.00,WeatherDisplay:10.37,2013-11-20 09:23:00,
2013-11-20 03:28:00,32.3,29.7,30.23,East,94,0.0,0.0,90,0.00,CLR,FEW,0.00,WeatherDisplay:10.37,2013-11-20 09:28:00,
2013-11-20 03:33:00,32.0,29.4,30.23,East,94,0.0,0.0,90,0.00,CLR,FEW,0.00,WeatherDisplay:10.37,2013-11-20 09:33:00,
2013-11-20 03:38:00,31.9,29.3,30.23,East,94,0.0,0.0,90,0.00,CLR,FEW,0.00,WeatherDisplay:10.37,2013-11-20 09:38:00,
2013-11-20 03:43:00,31.9,29.6,30.22,East,94,0.0,0.0,91,0.00,CLR,FEW,0.00,WeatherDisplay:10.37,2013-11-20 09:43:00,
2013-11-20 03:48:00,31.9,29.6,30.22,East,94,0.0,0.0,91,0.00,CLR,FEW,0.00,WeatherDisplay:10.37,2013-11-20 09:48:00,
2013-11-20 03:53:00,31.9,29.6,30.23,East,94,0.0,0.0,91,0.00,CLR,FEW,0.00,WeatherDisplay:10.37,2013-11-20 09:53:00,
2013-11-20 03:58:00,31.8,29.5,30.22,East,94,0.0,0.0,91,0.00,CLR,FEW,0.00,WeatherDisplay:10.37,2013-11-20 09:58:00,
2013-11-20 04:03:00,31.7,29.4,30.22,East,94,0.0,0.0,91,0.00,CLR,FEW,0.00,WeatherDisplay:10.37,2013-11-20 10:03:00,
2013-11-20 04:08:00,31.8,29.5,30.22,East,94,0.0,0.0,91,0.00,CLR,FEW,0.00,WeatherDisplay:10.37,2013-11-20 10:08:00,
2013-11-20 04:13:00,31.8,29.5,30.23,East,94,0.0,0.0,91,0.00,CLR,FEW,0.00,WeatherDisplay:10.37,2013-11-20 10:13:00,
2013-11-20 04:18:00,31.8,29.5,30.23,East,94,0.0,0.0,91,0.00,CLR,FEW,0.00,WeatherDisplay:10.37,2013-11-20 10:18:00,
2013-11-20 04:23:00,31.7,29.4,30.23,East,94,0.0,0.0,91,0.00,CLR,FEW,0.00,WeatherDisplay:10.37,2013-11-20 10:23:00,
2013-11-20 04:28:00,31.6,29.3,30.23,East,94,0.0,0.0,91,0.00,CLR,FEW,0.00,WeatherDisplay:10.37,2013-11-20 10:28:00,
2013-11-20 04:33:00,31.6,29.5,30.23,East,94,0.0,0.0,92,0.00,CLR,FEW,0.00,WeatherDisplay:10.37,2013-11-20 10:33:00,
2013-11-20 04:38:00,31.6,29.5,30.23,East,94,0.0,0.0,92,0.00,CLR,FEW,0.00,WeatherDisplay:10.37,2013-11-20 10:38:00,
2013-11-20 04:43:00,31.7,29.6,30.23,East,94,0.0,0.0,92,0.00,CLR,FEW,0.00,WeatherDisplay:10.37,2013-11-20 10:43:00,
2013-11-20 04:48:00,31.7,29.6,30.23,East,94,0.0,0.0,92,0.00,CLR,FEW,0.00,WeatherDisplay:10.37,2013-11-20 10:48:00,
2013-11-20 04:53:00,31.8,29.7,30.24,East,94,0.0,0.0,92,0.00,CLR,FEW,0.00,WeatherDisplay:10.37,2013-11-20 10:53:00,
2013-11-20 04:58:00,31.8,29.7,30.24,East,94,0.0,0.0,92,0.00,CLR,FEW,0.00,WeatherDisplay:10.37,2013-11-20 10:58:00,
2013-11-20 05:03:00,31.7,29.6,30.24,East,94,0.0,0.0,92,0.00,CLR,FEW,0.00,WeatherDisplay:10.37,2013-11-20 11:03:00,
2013-11-20 05:08:00,31.7,29.6,30.24,East,94,0.0,0.0,92,0.00,CLR,FEW,0.00,WeatherDisplay:10.37,2013-11-20 11:08:00,
2013-11-20 05:13:00,31.7,29.6,30.24,East,94,0.0,0.0,92,0.00,CLR,FEW,0.00,WeatherDisplay:10.37,2013-11-20 11:13:00,
2013-11-20 05:18:00,31.6,29.5,30.24,East,94,0.0,0.0,92,0.00,CLR,FEW,0.00,WeatherDisplay:10.37,2013-11-20 11:18:00,
2013-11-20 05:23:00,31.5,29.4,30.24,East,94,0.0,0.0,92,0.00,CLR,FEW,0.00,WeatherDisplay:10.37,2013-11-20 11:23:00,
2013-11-20 05:28:00,31.5,29.4,30.24,East,94,0.0,0.0,92,0.00,CLR,FEW,0.00,WeatherDisplay:10.37,2013-11-20 11:28:00,
2013-11-20 05:33:00,31.5,29.4,30.24,East,94,0.0,0.0,92,0.00,CLR,FEW,0.00,WeatherDisplay:10.37,2013-11-20 11:33:00,
2013-11-20 05:38:00,31.4,29.3,30.24,East,94,0.0,0.0,92,0.00,CLR,FEW,0.00,WeatherDisplay:10.37,2013-11-20 11:38:00,
2013-11-20 05:43:00,31.3,29.2,30.24,East,94,0.0,0.0,92,0.00,CLR,FEW,0.00,WeatherDisplay:10.37,2013-11-20 11:43:00,
2013-11-20 05:48:00,31.2,29.1,30.24,East,94,0.0,0.0,92,0.00,CLR,FEW,0.00,WeatherDisplay:10.37,2013-11-20 11:48:00,
2013-11-20 05:53:00,31.2,29.1,30.24,East,94,0.0,0.0,92,0.00,CLR,FEW,0.00,WeatherDisplay:10.37,2013-11-20 11:53:00,
2013-11-20 05:58:00,31.2,29.1,30.24,East,94,0.0,0.0,92,0.00,CLR,FEW,0.00,WeatherDisplay:10.37,2013-11-20 11:58:00,
2013-11-20 06:03:00,31.1,29.0,30.24,East,94,0.0,0.0,92,0.00,CLR,FEW,0.00,WeatherDisplay:10.37,2013-11-20 12:03:00,
2013-11-20 06:08:00,31.1,29.0,30.24,East,94,0.0,0.0,92,0.00,CLR,FEW,0.00,WeatherDisplay:10.37,2013-11-20 12:08:00,
2013-11-20 06:13:00,31.1,29.0,30.24,East,94,0.0,0.0,92,0.00,CLR,FEW,0.00,WeatherDisplay:10.37,2013-11-20 12:13:00,
2013-11-20 06:18:00,31.1,29.0,30.25,East,94,0.0,0.0,92,0.00,CLR,FEW,0.00,WeatherDisplay:10.37,2013-11-20 12:18:00,
2013-11-20 06:23:00,31.1,29.0,30.25,East,94,0.0,0.0,92,0.00,CLR,FEW,0.00,WeatherDisplay:10.37,2013-11-20 12:23:00,
2013-11-20 06:28:00,31.0,29.2,30.25,East,94,0.0,0.0,93,0.00,CLR,FEW,0.00,WeatherDisplay:10.37,2013-11-20 12:28:00,
2013-11-20 06:33:00,30.9,29.1,30.24,East,94,0.0,0.0,93,0.00,CLR,FEW,0.00,WeatherDisplay:10.37,2013-11-20 12:33:00,
2013-11-20 06:38:00,31.0,29.2,30.25,East,94,0.0,0.0,93,0.00,CLR,FEW,0.00,WeatherDisplay:10.37,2013-11-20 12:38:00,
2013-11-20 06:43:00,31.0,29.2,30.25,East,94,0.0,0.0,93,0.00,CLR,FEW,0.00,WeatherDisplay:10.37,2013-11-20 12:43:00,
2013-11-20 06:48:00,30.9,29.1,30.25,East,94,0.0,0.0,93,0.00,CLR,FEW,0.00,WeatherDisplay:10.37,2013-11-20 12:48:00,
2013-11-20 06:53:00,30.9,29.1,30.25,East,94,0.0,0.0,93,0.00,CLR,FEW,0.00,WeatherDisplay:10.37,2013-11-20 12:53:00,
2013-11-20 06:58:00,30.9,29.1,30.25,East,94,0.0,0.0,93,0.00,CLR,FEW,0.00,WeatherDisplay:10.37,2013-11-20 12:58:00,
2013-11-20 07:03:00,30.9,29.1,30.25,East,94,0.0,0.0,93,0.00,CLR,FEW,0.00,WeatherDisplay:10.37,2013-11-20 13:03:00,
2013-11-20 07:08:00,31.0,29.2,30.25,East,94,0.0,0.0,93,0.00,CLR,FEW,0.00,WeatherDisplay:10.37,2013-11-20 13:08:00,
2013-11-20 07:13:00,31.0,29.2,30.25,East,94,0.0,0.0,93,0.00,CLR,FEW,0.00,WeatherDisplay:10.37,2013-11-20 13:13:00,
2013-11-20 07:18:00,31.1,29.3,30.24,East,94,0.0,0.0,93,0.00,CLR,FEW,0.00,WeatherDisplay:10.37,2013-11-20 13:18:00,
2013-11-20 07:23:00,31.2,29.7,30.24,East,94,0.0,0.0,94,0.00,CLR,FEW,0.00,WeatherDisplay:10.37,2013-11-20 13:23:00,
2013-11-20 07:28:00,31.4,29.9,30.24,East,94,0.0,0.0,94,0.00,CLR,FEW,0.00,WeatherDisplay:10.37,2013-11-20 13:28:00,
2013-11-20 07:33:00,31.6,30.1,30.24,East,94,0.0,0.0,94,0.00,CLR,FEW,0.00,WeatherDisplay:10.37,2013-11-20 13:33:00,
2013-11-20 07:38:00,31.9,30.4,30.24,East,94,1.2,1.2,94,0.00,CLR,FEW,0.00,WeatherDisplay:10.37,2013-11-20 13:38:00,
2013-11-20 07:44:00,32.1,30.6,30.24,East,94,1.2,1.2,94,0.00,CLR,FEW,0.00,WeatherDisplay:10.37,2013-11-20 13:44:00,
2013-11-20 07:49:00,32.5,31.0,30.24,East,94,1.2,0.0,94,0.00,CLR,FEW,0.00,WeatherDisplay:10.37,2013-11-20 13:49:00,
2013-11-20 07:54:00,32.9,31.4,30.25,East,90,1.1,1.1,94,0.00,CLR,FEW,0.00,WeatherDisplay:10.37,2013-11-20 13:54:00,
2013-11-20 07:59:00,33.3,31.5,30.25,SE,146,0.0,0.1,93,0.00,CLR,FEW,0.00,WeatherDisplay:10.37,2013-11-20 13:59:00,
2013-11-20 08:04:00,33.9,32.1,30.25,SSE,148,0.0,0.2,93,0.00,CLR,FEW,0.00,WeatherDisplay:10.37,2013-11-20 14:04:00,
2013-11-20 08:09:00,34.4,32.3,30.25,SE,144,1.2,1.2,92,0.00,CLR,FEW,0.00,WeatherDisplay:10.37,2013-11-20 14:09:00,
2013-11-20 08:14:00,34.9,32.3,30.25,ENE,74,1.2,0.0,90,0.00,CLR,FEW,0.00,WeatherDisplay:10.37,2013-11-20 14:14:00,
2013-11-20 08:19:00,35.4,32.8,30.25,East,88,1.2,1.2,90,0.00,CLR,FEW,0.00,WeatherDisplay:10.37,2013-11-20 14:19:00,
2013-11-20 08:24:00,35.9,33.0,30.25,East,82,2.3,2.3,89,0.00,CLR,FEW,0.00,WeatherDisplay:10.37,2013-11-20 14:24:00,
2013-11-20 08:29:00,36.4,33.5,30.25,ESE,115,0.0,0.7,89,0.00,CLR,FEW,0.00,WeatherDisplay:10.37,2013-11-20 14:29:00,
2013-11-20 08:34:00,37.0,33.5,30.25,East,79,2.3,2.3,87,0.00,CLR,FEW,0.00,WeatherDisplay:10.37,2013-11-20 14:34:00,
2013-11-20 08:39:00,37.5,33.7,30.25,ESE,105,2.3,2.3,86,0.00,CLR,FEW,0.00,WeatherDisplay:10.37,2013-11-20 14:39:00,
2013-11-20 08:44:00,38.1,34.3,30.25,ESE,107,1.2,0.0,86,0.00,CLR,FEW,0.00,WeatherDisplay:10.37,2013-11-20 14:44:00,
2013-11-20 08:49:00,38.6,33.9,30.25,ENE,62,2.3,2.4,83,0.00,CLR,FEW,0.00,WeatherDisplay:10.37,2013-11-20 14:49:00,
2013-11-20 08:54:00,39.1,34.4,30.25,SE,130,1.2,1.2,83,0.00,CLR,FEW,0.00,WeatherDisplay:10.37,2013-11-20 14:54:00,
2013-11-20 08:59:00,39.6,34.6,30.25,SSE,167,4.6,4.6,82,0.00,CLR,FEW,0.00,WeatherDisplay:10.37,2013-11-20 14:59:00,
2013-11-20 09:04:00,40.1,34.4,30.26,ENE,73,3.5,3.5,80,0.00,CLR,FEW,0.00,WeatherDisplay:10.37,2013-11-20 15:04:00,
2013-11-20 09:09:00,40.7,34.7,30.25,ESE,106,2.3,2.3,79,0.00,CLR,FEW,0.00,WeatherDisplay:10.37,2013-11-20 15:09:00,
2013-11-20 09:14:00,41.3,35.0,30.25,East,95,5.8,5.8,78,0.00,CLR,FEW,0.00,WeatherDisplay:10.37,2013-11-20 15:14:00,
2013-11-20 09:19:00,41.8,35.1,30.25,ENE,71,4.6,4.6,77,0.00,CLR,FEW,0.00,WeatherDisplay:10.37,2013-11-20 15:19:00,
2013-11-20 09:24:00,42.4,35.4,30.25,ENE,74,2.3,2.3,76,0.00,CLR,FEW,0.00,WeatherDisplay:10.37,2013-11-20 15:24:00,
2013-11-20 09:29:00,43.1,35.4,30.25,ENE,77,3.5,3.5,74,0.00,CLR,FEW,0.00,WeatherDisplay:10.37,2013-11-20 15:29:00,
2013-11-20 09:34:00,43.8,36.0,30.25,ESE,102,3.5,3.5,74,0.00,CLR,FEW,0.00,WeatherDisplay:10.37,2013-11-20 15:34:00,
2013-11-20 09:39:00,44.7,36.9,30.25,NE,43,2.3,2.3,74,0.00,CLR,FEW,0.00,WeatherDisplay:10.37,2013-11-20 15:39:00,
2013-11-20 09:44:00,45.7,36.8,30.24,SE,133,2.3,2.3,71,0.00,CLR,FEW,0.00,WeatherDisplay:10.37,2013-11-20 15:44:00,
2013-11-20 09:49:00,46.6,37.0,30.24,ESE,102,2.3,2.3,69,0.00,CLR,FEW,0.00,WeatherDisplay:10.37,2013-11-20 15:49:00,
2013-11-20 09:54:00,47.6,36.8,30.24,ENE,74,4.6,4.6,66,0.00,CLR,FEW,0.00,WeatherDisplay:10.37,2013-11-20 15:54:00,
2013-11-20 09:59:00,48.4,37.2,30.24,ENE,69,4.6,4.6,65,0.00,CLR,FEW,0.00,WeatherDisplay:10.37,2013-11-20 15:59:00,
2013-11-20 10:04:00,49.0,36.9,30.24,ENE,64,3.5,3.5,63,0.00,CLR,FEW,0.00,WeatherDisplay:10.37,2013-11-20 16:04:00,
2013-11-20 10:09:00,49.6,37.5,30.24,ENE,75,4.6,4.6,63,0.00,CLR,FEW,0.00,WeatherDisplay:10.37,2013-11-20 16:09:00,
2013-11-20 10:14:00,50.0,37.9,30.23,ENE,63,2.3,2.3,63,0.00,CLR,FEW,0.00,WeatherDisplay:10.37,2013-11-20 16:14:00,
2013-11-20 10:19:00,50.5,37.5,30.23,ENE,61,5.8,5.8,61,0.00,CLR,FEW,0.00,WeatherDisplay:10.37,2013-11-20 16:19:00,
2013-11-20 10:24:00,50.7,38.6,30.23,East,86,4.6,4.6,63,0.00,CLR,FEW,0.00,WeatherDisplay:10.37,2013-11-20 16:24:00,
2013-11-20 10:29:00,50.9,37.9,30.23,NE,48,2.3,2.3,61,0.00,CLR,FEW,0.00,WeatherDisplay:10.37,2013-11-20 16:29:00,
2013-11-20 10:34:00,51.3,38.3,30.23,ENE,59,2.3,2.3,61,0.00,CLR,FEW,0.00,WeatherDisplay:10.37,2013-11-20 16:34:00,
2013-11-20 10:39:00,51.8,37.9,30.22,NE,36,6.9,6.9,59,0.00,CLR,FEW,0.00,WeatherDisplay:10.37,2013-11-20 16:39:00,
2013-11-20 10:45:00,52.4,35.3,30.22,SSE,154,4.6,5.5,52,0.00,CLR,FEW,0.00,WeatherDisplay:10.37,2013-11-20 16:45:00,
2013-11-20 10:50:00,54.2,36.9,30.21,South,188,4.6,4.6,52,0.00,CLR,FEW,0.00,WeatherDisplay:10.37,2013-11-20 16:50:00,
2013-11-20 10:55:00,55.7,36.3,30.21,ESE,111,5.8,5.8,48,0.00,CLR,FEW,0.00,WeatherDisplay:10.37,2013-11-20 16:55:00,
2013-11-20 11:00:00,56.5,36.0,30.21,South,171,2.3,2.3,46,0.00,CLR,FEW,0.00,WeatherDisplay:10.37,2013-11-20 17:00:00,
2013-11-20 11:05:00,57.2,35.5,30.21,SW,230,4.6,4.6,44,0.00,CLR,FEW,0.00,WeatherDisplay:10.37,2013-11-20 17:05:00,
2013-11-20 11:10:00,57.7,34.7,30.21,East,90,6.9,6.9,42,0.00,CLR,FEW,0.00,WeatherDisplay:10.37,2013-11-20 17:10:00,
2013-11-20 11:15:00,58.2,35.2,30.21,SSE,164,5.8,5.8,42,0.00,CLR,FEW,0.00,WeatherDisplay:10.37,2013-11-20 17:15:00,
2013-11-20 11:20:00,58.4,35.4,30.21,SE,139,9.2,9.2,42,0.00,CLR,FEW,0.00,WeatherDisplay:10.37,2013-11-20 17:20:00,
2013-11-20 11:25:00,58.6,36.7,30.21,SSE,168,5.8,5.8,44,0.00,CLR,FEW,0.00,WeatherDisplay:10.37,2013-11-20 17:25:00,
2013-11-20 11:30:00,59.1,35.4,30.21,SSE,162,8.1,8.1,41,0.00,CLR,FEW,0.00,WeatherDisplay:10.37,2013-11-20 17:30:00,
2013-11-20 11:35:00,59.2,35.5,30.20,SSW,207,2.3,2.8,41,0.00,CLR,FEW,0.00,WeatherDisplay:10.37,2013-11-20 17:35:00,
2013-11-20 11:40:00,59.5,35.1,30.20,SW,236,8.1,8.1,40,0.00,CLR,FEW,0.00,WeatherDisplay:10.37,2013-11-20 17:40:00,
2013-11-20 11:45:00,59.8,35.4,30.19,SW,215,3.5,3.5,40,0.00,CLR,FEW,0.00,WeatherDisplay:10.37,2013-11-20 17:45:00,
2013-11-20 11:50:00,59.9,34.9,30.19,South,172,8.1,8.1,39,0.00,CLR,FEW,0.00,WeatherDisplay:10.37,2013-11-20 17:50:00,
2013-11-20 11:55:00,60.1,35.7,30.19,WSW,250,6.9,6.9,40,0.00,CLR,FEW,0.00,WeatherDisplay:10.37,2013-11-20 17:55:00,
2013-11-20 12:00:00,60.3,35.2,30.18,WSW,240,6.9,6.9,39,0.00,CLR,FEW,0.00,WeatherDisplay:10.37,2013-11-20 18:00:00,
2013-11-20 12:05:00,60.6,36.1,30.18,NW,313,3.5,3.5,40,0.00,CLR,FEW,0.00,WeatherDisplay:10.37,2013-11-20 18:05:00,
2013-11-20 12:10:00,61.1,35.9,30.17,SE,142,8.1,8.1,39,0.00,CLR,FEW,0.00,WeatherDisplay:10.37,2013-11-20 18:10:00,
2013-11-20 12:15:00,60.9,35.8,30.17,South,190,4.6,4.6,39,0.00,CLR,FEW,0.00,WeatherDisplay:10.37,2013-11-20 18:15:00,
2013-11-20 12:20:00,60.9,35.1,30.17,South,190,12.7,12.7,38,0.00,CLR,FEW,0.00,WeatherDisplay:10.37,2013-11-20 18:20:00,
2013-11-20 12:25:00,60.8,36.3,30.17,SSE,154,6.4,6.4,40,0.00,CLR,FEW,0.00,WeatherDisplay:10.37,2013-11-20 18:25:00,
2013-11-20 12:30:00,60.9,35.1,30.17,South,171,5.8,5.8,38,0.00,CLR,FEW,0.00,WeatherDisplay:10.37,2013-11-20 18:30:00,
2013-11-20 12:35:00,61.2,36.7,30.17,SSE,163,2.3,3.2,40,0.00,CLR,FEW,0.00,WeatherDisplay:10.37,2013-11-20 18:35:00,
2013-11-20 12:40:00,61.6,37.0,30.17,South,186,3.5,3.5,40,0.00,CLR,FEW,0.00,WeatherDisplay:10.37,2013-11-20 18:40:00,
2013-11-20 12:45:00,61.8,35.2,30.17,SSE,163,8.1,8.1,37,0.00,CLR,FEW,0.00,WeatherDisplay:10.37,2013-11-20 18:45:00,
2013-11-20 12:50:00,61.6,35.7,30.16,South,190,5.8,5.8,38,0.00,CLR,FEW,0.00,WeatherDisplay:10.37,2013-11-20 18:50:00,
2013-11-20 12:55:00,61.7,36.5,30.16,South,171,4.6,4.6,39,0.00,CLR,FEW,0.00,WeatherDisplay:10.37,2013-11-20 18:55:00,
2013-11-20 13:00:00,62.0,37.4,30.16,SW,235,6.9,6.9,40,0.00,CLR,FEW,0.00,WeatherDisplay:10.37,2013-11-20 19:00:00,
2013-11-20 13:05:00,62.2,36.3,30.16,SSW,192,4.6,4.6,38,0.00,CLR,FEW,0.00,WeatherDisplay:10.37,2013-11-20 19:05:00,
2013-11-20 13:10:00,62.4,35.8,30.15,SSW,193,8.1,8.1,37,0.00,CLR,FEW,0.00,WeatherDisplay:10.37,2013-11-20 19:10:00,
2013-11-20 13:15:00,62.5,35.9,30.15,ESE,111,8.1,8.1,37,0.00,CLR,FEW,0.00,WeatherDisplay:10.37,2013-11-20 19:15:00,
2013-11-20 13:20:00,62.5,35.9,30.15,SW,225,10.4,10.4,37,0.00,CLR,FEW,0.00,WeatherDisplay:10.37,2013-11-20 19:20:00,
2013-11-20 13:25:00,62.3,36.4,30.15,SSE,151,3.5,3.5,38,0.00,CLR,FEW,0.00,WeatherDisplay:10.37,2013-11-20 19:25:00,
2013-11-20 13:30:00,62.4,35.1,30.15,South,175,4.6,4.6,36,0.00,CLR,FEW,0.00,WeatherDisplay:10.37,2013-11-20 19:30:00,
2013-11-20 13:35:00,62.3,36.4,30.15,SE,144,1.2,1.2,38,0.00,CLR,FEW,0.00,WeatherDisplay:10.37,2013-11-20 19:35:00,
2013-11-20 13:40:00,62.7,36.0,30.15,SW,217,6.9,6.9,37,0.00,CLR,FEW,0.00,WeatherDisplay:10.37,2013-11-20 19:40:00,
2013-11-20 13:45:00,63.0,36.3,30.15,SW,217,4.6,4.6,37,0.00,CLR,FEW,0.00,WeatherDisplay:10.37,2013-11-20 19:45:00,
2013-11-20 13:50:00,62.9,36.2,30.15,SSW,192,3.5,3.5,37,0.00,CLR,FEW,0.00,WeatherDisplay:10.37,2013-11-20 19:50:00,
2013-11-20 13:55:00,62.6,35.3,30.15,SW,215,2.3,2.3,36,0.00,CLR,FEW,0.00,WeatherDisplay:10.37,2013-11-20 19:55:00,
2013-11-20 14:00:00,62.4,35.8,30.15,SSE,153,4.6,4.6,37,0.00,CLR,FEW,0.00,WeatherDisplay:10.37,2013-11-20 20:00:00,
2013-11-20 14:05:00,62.2,36.3,30.15,SSW,192,0.0,0.0,38,0.00,CLR,FEW,0.00,WeatherDisplay:10.37,2013-11-20 20:05:00,
2013-11-20 14:10:00,62.0,35.4,30.15,ENE,71,4.6,4.6,37,0.00,CLR,FEW,0.00,WeatherDisplay:10.37,2013-11-20 20:10:00,
2013-11-20 14:15:00,61.9,35.3,30.14,ESE,121,5.8,5.8,37,0.00,CLR,FEW,0.00,WeatherDisplay:10.37,2013-11-20 20:15:00,
2013-11-20 14:20:00,61.8,35.2,30.14,ESE,106,2.3,2.3,37,0.00,CLR,FEW,0.00,WeatherDisplay:10.37,2013-11-20 20:20:00,
2013-11-20 14:25:00,61.8,35.9,30.14,SW,217,3.5,3.5,38,0.00,CLR,FEW,0.00,WeatherDisplay:10.37,2013-11-20 20:25:00,
2013-11-20 14:30:00,61.9,36.0,30.15,South,169,2.3,2.3,38,0.00,CLR,FEW,0.00,WeatherDisplay:10.37,2013-11-20 20:30:00,
2013-11-20 14:35:00,61.9,34.6,30.14,SSE,161,5.8,5.8,36,0.00,CLR,FEW,0.00,WeatherDisplay:10.37,2013-11-20 20:35:00,
2013-11-20 14:40:00,61.9,36.0,30.14,SSE,159,3.5,3.5,38,0.00,CLR,FEW,0.00,WeatherDisplay:10.37,2013-11-20 20:40:00,
2013-11-20 14:45:00,61.8,36.6,30.14,SSW,205,1.2,1.2,39,0.00,CLR,FEW,0.00,WeatherDisplay:10.37,2013-11-20 20:45:00,
2013-11-20 14:50:00,61.8,36.6,30.14,East,100,3.5,3.5,39,0.00,CLR,FEW,0.00,WeatherDisplay:10.37,2013-11-20 20:50:00,
2013-11-20 14:55:00,61.8,38.4,30.14,South,179,2.3,2.3,42,0.00,CLR,FEW,0.00,WeatherDisplay:10.37,2013-11-20 20:55:00,
2013-11-20 15:00:00,61.7,37.1,30.13,South,170,4.6,4.6,40,0.00,CLR,FEW,0.00,WeatherDisplay:10.37,2013-11-20 21:00:00,
2013-11-20 15:05:00,61.7,37.1,30.13,ESE,112,1.2,1.2,40,0.00,CLR,FEW,0.00,WeatherDisplay:10.37,2013-11-20 21:05:00,
2013-11-20 15:10:00,61.6,36.4,30.14,South,169,2.3,2.3,39,0.00,CLR,FEW,0.00,WeatherDisplay:10.37,2013-11-20 21:10:00,
2013-11-20 15:15:00,61.6,35.7,30.13,South,175,3.5,3.5,38,0.00,CLR,FEW,0.00,WeatherDisplay:10.37,2013-11-20 21:15:00,
2013-11-20 15:20:00,61.6,36.4,30.14,SSW,203,1.2,1.2,39,0.00,CLR,FEW,0.00,WeatherDisplay:10.37,2013-11-20 21:20:00,
2013-11-20 15:25:00,61.6,35.7,30.14,SE,135,2.3,2.3,38,0.00,CLR,FEW,0.00,WeatherDisplay:10.37,2013-11-20 21:25:00,
2013-11-20 15:30:00,61.6,35.7,30.14,SE,127,2.3,2.3,38,0.00,CLR,FEW,0.00,WeatherDisplay:10.37,2013-11-20 21:30:00,
2013-11-20 15:35:00,61.6,35.7,30.13,ESE,122,2.3,2.3,38,0.00,CLR,FEW,0.00,WeatherDisplay:10.37,2013-11-20 21:35:00,
2013-11-20 15:40:00,61.4,36.2,30.14,ESE,117,4.6,4.6,39,0.00,CLR,FEW,0.00,WeatherDisplay:10.37,2013-11-20 21:40:00,
2013-11-20 15:45:00,61.3,35.5,30.14,SSE,167,8.1,8.1,38,0.00,CLR,FEW,0.00,WeatherDisplay:10.37,2013-11-20 21:45:00,
2013-11-20 15:50:00,61.1,35.9,30.14,South,189,2.3,2.3,39,0.00,CLR,FEW,0.00,WeatherDisplay:10.37,2013-11-20 21:50:00,
2013-11-20 15:55:00,60.9,35.8,30.14,South,170,3.5,3.5,39,0.00,CLR,FEW,0.00,WeatherDisplay:10.37,2013-11-20 21:55:00,
2013-11-20 16:00:00,60.7,35.6,30.14,SSE,165,5.8,5.8,39,0.00,CLR,FEW,0.00,WeatherDisplay:10.37,2013-11-20 22:00:00,
2013-11-20 16:05:00,60.6,36.1,30.14,ESE,119,2.3,0.0,40,0.00,CLR,FEW,0.00,WeatherDisplay:10.37,2013-11-20 22:05:00,
2013-11-20 16:11:00,60.3,36.5,30.14,SSE,166,0.0,0.3,41,0.00,CLR,FEW,0.00,WeatherDisplay:10.37,2013-11-20 22:11:00,
2013-11-20 16:16:00,60.1,36.3,30.14,SE,124,1.2,1.2,41,0.00,CLR,FEW,0.00,WeatherDisplay:10.37,2013-11-20 22:16:00,
2013-11-20 16:21:00,59.8,36.6,30.14,ESE,108,1.2,0.0,42,0.00,CLR,FEW,0.00,WeatherDisplay:10.37,2013-11-20 22:21:00,
2013-11-20 16:26:00,59.4,36.3,30.14,SSW,212,0.0,0.6,42,0.00,CLR,FEW,0.00,WeatherDisplay:10.37,2013-11-20 22:26:00,
2013-11-20 16:31:00,59.0,35.9,30.14,ESE,117,1.2,1.2,42,0.00,CLR,FEW,0.00,WeatherDisplay:10.37,2013-11-20 22:31:00,
2013-11-20 16:36:00,58.6,36.7,30.14,ESE,117,0.0,0.0,44,0.00,CLR,FEW,0.00,WeatherDisplay:10.37,2013-11-20 22:36:00,
2013-11-20 16:41:00,58.2,36.4,30.14,ESE,117,0.0,0.0,44,0.00,CLR,FEW,0.00,WeatherDisplay:10.37,2013-11-20 22:41:00,
2013-11-20 16:46:00,57.8,36.0,30.14,ESE,117,0.0,0.0,44,0.00,CLR,FEW,0.00,WeatherDisplay:10.37,2013-11-20 22:46:00,
2013-11-20 16:51:00,57.5,36.3,30.14,ESE,117,0.0,0.0,45,0.00,CLR,FEW,0.00,WeatherDisplay:10.37,2013-11-20 22:51:00,
2013-11-20 16:56:00,57.1,35.4,30.14,ESE,117,0.0,0.0,44,0.00,CLR,FEW,0.00,WeatherDisplay:10.37,2013-11-20 22:56:00,
2013-11-20 17:01:00,56.8,36.2,30.14,ESE,117,0.0,0.0,46,0.00,CLR,FEW,0.00,WeatherDisplay:10.37,2013-11-20 23:01:00,
2013-11-20 17:06:00,56.4,35.9,30.15,ESE,117,0.0,0.0,46,0.00,CLR,FEW,0.00,WeatherDisplay:10.37,2013-11-20 23:06:00,
2013-11-20 17:11:00,56.1,35.6,30.15,ESE,117,0.0,0.0,46,0.00,CLR,FEW,0.00,WeatherDisplay:10.37,2013-11-20 23:11:00,
2013-11-20 17:16:00,55.9,35.9,30.15,ESE,117,0.0,0.0,47,0.00,CLR,FEW,0.00,WeatherDisplay:10.37,2013-11-20 23:16:00,
2013-11-20 17:21:00,55.6,35.7,30.15,ESE,117,0.0,0.0,47,0.00,CLR,FEW,0.00,WeatherDisplay:10.37,2013-11-20 23:21:00,
2013-11-20 17:26:00,55.2,36.4,30.15,ESE,117,0.0,0.0,49,0.00,CLR,FEW,0.00,WeatherDisplay:10.37,2013-11-20 23:26:00,
2013-11-20 17:31:00,54.8,36.5,30.15,ESE,117,0.0,0.0,50,0.00,CLR,FEW,0.00,WeatherDisplay:10.37,2013-11-20 23:31:00,
2013-11-20 17:36:00,54.2,35.9,30.15,ESE,117,0.0,0.0,50,0.00,CLR,FEW,0.00,WeatherDisplay:10.37,2013-11-20 23:36:00,
2013-11-20 17:41:00,53.9,36.7,30.16,ESE,117,0.0,0.0,52,0.00,CLR,FEW,0.00,WeatherDisplay:10.37,2013-11-20 23:41:00,
2013-11-20 17:46:00,53.5,36.3,30.16,ESE,117,0.0,0.0,52,0.00,CLR,FEW,0.00,WeatherDisplay:10.37,2013-11-20 23:46:00,
2013-11-20 17:51:00,53.2,37.0,30.16,ESE,117,0.0,0.0,54,0.00,CLR,FEW,0.00,WeatherDisplay:10.37,2013-11-20 23:51:00,
2013-11-20 17:56:00,52.8,37.1,30.16,ESE,117,0.0,0.0,55,0.00,CLR,FEW,0.00,WeatherDisplay:10.37,2013-11-20 23:56:00,
2013-11-20 18:01:00,52.5,36.3,30.16,ESE,117,1.2,0.0,54,0.00,CLR,FEW,0.00,WeatherDisplay:10.37,2013-11-21 00:01:00,
2013-11-20 18:06:00,52.3,36.6,30.15,ESE,117,0.0,0.0,55,0.00,CLR,FEW,0.00,WeatherDisplay:10.37,2013-11-21 00:06:00,
2013-11-20 18:11:00,52.1,35.9,30.16,ESE,123,1.2,0.0,54,0.00,CLR,FEW,0.00,WeatherDisplay:10.37,2013-11-21 00:11:00,
2013-11-20 18:16:00,52.0,36.3,30.16,ESE,123,0.0,0.0,55,0.00,CLR,FEW,0.00,WeatherDisplay:10.37,2013-11-21 00:16:00,
2013-11-20 18:21:00,51.9,36.2,30.16,ESE,123,0.0,0.0,55,0.00,CLR,FEW,0.00,WeatherDisplay:10.37,2013-11-21 00:21:00,
2013-11-20 18:26:00,51.8,36.6,30.16,ESE,123,0.0,0.0,56,0.00,CLR,FEW,0.00,WeatherDisplay:10.37,2013-11-21 00:26:00,
2013-11-20 18:31:00,51.8,36.1,30.16,SSE,157,1.2,0.0,55,0.00,CLR,FEW,0.00,WeatherDisplay:10.37,2013-11-21 00:31:00,
2013-11-20 18:36:00,51.7,36.5,30.16,SSE,152,1.2,0.0,56,0.00,CLR,FEW,0.00,WeatherDisplay:10.37,2013-11-21 00:36:00,
2013-11-20 18:41:00,51.6,36.4,30.16,SSE,152,0.0,0.0,56,0.00,CLR,FEW,0.00,WeatherDisplay:10.37,2013-11-21 00:41:00,
2013-11-20 18:46:00,51.3,37.0,30.15,SSE,152,0.0,0.0,58,0.00,CLR,FEW,0.00,WeatherDisplay:10.37,2013-11-21 00:46:00,
2013-11-20 18:51:00,51.0,36.3,30.16,SSE,152,0.0,0.0,57,0.00,CLR,FEW,0.00,WeatherDisplay:10.37,2013-11-21 00:51:00,
2013-11-20 18:56:00,50.8,36.5,30.16,SSE,152,1.2,0.0,58,0.00,CLR,FEW,0.00,WeatherDisplay:10.37,2013-11-21 00:56:00,
2013-11-20 19:01:00,50.8,36.5,30.16,SSE,152,0.0,0.0,58,0.00,CLR,FEW,0.00,WeatherDisplay:10.37,2013-11-21 01:01:00,
2013-11-20 19:06:00,50.7,35.6,30.16,SSE,152,1.2,1.2,56,0.00,CLR,FEW,0.00,WeatherDisplay:10.37,2013-11-21 01:06:00,
2013-11-20 19:11:00,50.7,36.5,30.16,SSE,152,0.0,0.0,58,0.00,CLR,FEW,0.00,WeatherDisplay:10.37,2013-11-21 01:11:00,
2013-11-20 19:16:00,50.6,36.4,30.16,SSE,152,0.0,0.0,58,0.00,CLR,FEW,0.00,WeatherDisplay:10.37,2013-11-21 01:16:00,
2013-11-20 19:21:00,50.4,36.2,30.17,SSE,152,0.0,0.0,58,0.00,CLR,FEW,0.00,WeatherDisplay:10.37,2013-11-21 01:21:00,
2013-11-20 19:26:00,50.2,36.0,30.17,SSE,152,0.0,0.0,58,0.00,CLR,FEW,0.00,WeatherDisplay:10.37,2013-11-21 01:26:00,
2013-11-20 19:31:00,50.0,35.4,30.17,SSE,152,1.2,1.2,57,0.00,CLR,FEW,0.00,WeatherDisplay:10.37,2013-11-21 01:31:00,
2013-11-20 19:36:00,50.0,36.7,30.17,SSE,152,1.2,0.0,60,0.00,CLR,FEW,0.00,WeatherDisplay:10.37,2013-11-21 01:36:00,
2013-11-20 19:41:00,49.6,36.3,30.17,SSE,152,0.0,0.0,60,0.00,CLR,FEW,0.00,WeatherDisplay:10.37,2013-11-21 01:41:00,
2013-11-20 19:46:00,49.2,36.7,30.17,SSE,152,0.0,0.0,62,0.00,CLR,FEW,0.00,WeatherDisplay:10.37,2013-11-21 01:46:00,
2013-11-20 19:51:00,49.0,36.5,30.17,SSE,152,0.0,0.0,62,0.00,CLR,FEW,0.00,WeatherDisplay:10.37,2013-11-21 01:51:00,
2013-11-20 19:56:00,48.7,36.3,30.18,SSE,152,0.0,0.0,62,0.00,CLR,FEW,0.00,WeatherDisplay:10.37,2013-11-21 01:56:00,
2013-11-20 20:01:00,48.5,36.5,30.18,SSE,152,0.0,0.0,63,0.00,CLR,FEW,0.00,WeatherDisplay:10.37,2013-11-21 02:01:00,
2013-11-20 20:06:00,48.2,36.2,30.18,SSE,152,0.0,0.0,63,0.00,CLR,FEW,0.00,WeatherDisplay:10.37,2013-11-21 02:06:00,
2013-11-20 20:11:00,47.9,36.3,30.18,SSE,152,0.0,0.0,64,0.00,CLR,FEW,0.00,WeatherDisplay:10.37,2013-11-21 02:11:00,
2013-11-20 20:16:00,47.5,36.7,30.19,SSE,152,0.0,0.0,66,0.00,CLR,FEW,0.00,WeatherDisplay:10.37,2013-11-21 02:16:00,
2013-11-20 20:21:00,47.2,36.4,30.19,SSE,152,0.0,0.2,66,0.00,CLR,FEW,0.00,WeatherDisplay:10.37,2013-11-21 02:21:00,
2013-11-20 20:26:00,46.9,36.9,30.19,SSE,152,0.0,0.0,68,0.00,CLR,FEW,0.00,WeatherDisplay:10.37,2013-11-21 02:26:00,
2013-11-20 20:31:00,46.7,36.7,30.19,SSE,152,0.0,0.0,68,0.00,CLR,FEW,0.00,WeatherDisplay:10.37,2013-11-21 02:31:00,
2013-11-20 20:36:00,46.6,37.0,30.19,SSE,152,2.3,2.3,69,0.00,CLR,FEW,0.00,WeatherDisplay:10.37,2013-11-21 02:36:00,
2013-11-20 20:41:00,46.4,37.5,30.19,SSE,152,1.2,0.0,71,0.00,CLR,FEW,0.00,WeatherDisplay:10.37,2013-11-21 02:41:00,
2013-11-20 20:46:00,46.1,36.9,30.20,SSE,152,0.0,0.0,70,0.00,CLR,FEW,0.00,WeatherDisplay:10.37,2013-11-21 02:46:00,
2013-11-20 20:51:00,46.0,36.4,30.20,SSE,152,0.0,0.0,69,0.00,CLR,FEW,0.00,WeatherDisplay:10.37,2013-11-21 02:51:00,
2013-11-20 20:56:00,46.0,36.8,30.20,SSE,152,1.2,0.0,70,0.00,CLR,FEW,0.00,WeatherDisplay:10.37,2013-11-21 02:56:00,
2013-11-20 21:01:00,46.0,36.8,30.20,SSE,152,1.2,0.0,70,0.00,CLR,FEW,0.00,WeatherDisplay:10.37,2013-11-21 03:01:00,
2013-11-20 21:06:00,46.2,36.6,30.20,SSE,152,0.0,0.0,69,0.00,CLR,FEW,0.00,WeatherDisplay:10.37,2013-11-21 03:06:00,
2013-11-20 21:12:00,46.3,36.7,30.20,SSE,152,1.2,1.2,69,0.00,CLR,FEW,0.00,WeatherDisplay:10.37,2013-11-21 03:12:00,
2013-11-20 21:17:00,46.4,36.8,30.20,SSE,152,0.0,0.0,69,0.00,CLR,FEW,0.00,WeatherDisplay:10.37,2013-11-21 03:17:00,
2013-11-20 21:22:00,46.5,36.5,30.20,SSE,152,1.2,1.2,68,0.00,CLR,FEW,0.00,WeatherDisplay:10.37,2013-11-21 03:22:00,
2013-11-20 21:27:00,46.6,37.0,30.20,SSE,152,1.2,1.2,69,0.00,CLR,FEW,0.00,WeatherDisplay:10.37,2013-11-21 03:27:00,
2013-11-20 21:32:00,46.6,37.0,30.20,SSE,152,2.3,2.3,69,0.00,CLR,FEW,0.00,WeatherDisplay:10.37,2013-11-21 03:32:00,
2013-11-20 21:37:00,46.5,36.9,30.20,East,86,3.5,3.5,69,0.00,CLR,FEW,0.00,WeatherDisplay:10.37,2013-11-21 03:37:00,
2013-11-20 21:42:00,46.4,36.8,30.20,ENE,72,3.5,3.5,69,0.00,CLR,FEW,0.00,WeatherDisplay:10.37,2013-11-21 03:42:00,
2013-11-20 21:47:00,46.3,36.7,30.20,SE,124,2.3,2.3,69,0.00,CLR,FEW,0.00,WeatherDisplay:10.37,2013-11-21 03:47:00,
2013-11-20 21:52:00,46.2,37.0,30.19,ESE,102,2.3,2.3,70,0.00,CLR,FEW,0.00,WeatherDisplay:10.37,2013-11-21 03:52:00,
2013-11-20 21:57:00,46.3,36.7,30.19,East,91,1.2,1.2,69,0.00,CLR,FEW,0.00,WeatherDisplay:10.37,2013-11-21 03:57:00,
2013-11-20 22:02:00,46.4,36.8,30.19,East,79,2.3,2.3,69,0.00,CLR,FEW,0.00,WeatherDisplay:10.37,2013-11-21 04:02:00,
2013-11-20 22:07:00,46.6,37.3,30.19,ENE,73,1.2,1.2,70,0.00,CLR,FEW,0.00,WeatherDisplay:10.37,2013-11-21 04:07:00,
2013-11-20 22:12:00,46.6,37.0,30.19,East,87,2.3,2.3,69,0.00,CLR,FEW,0.00,WeatherDisplay:10.37,2013-11-21 04:12:00,
2013-11-20 22:17:00,46.3,37.4,30.19,ENE,61,2.3,2.3,71,0.00,CLR,FEW,0.00,WeatherDisplay:10.37,2013-11-21 04:17:00,
2013-11-20 22:22:00,46.2,38.0,30.19,ENE,77,2.3,2.3,73,0.00,CLR,FEW,0.00,WeatherDisplay:10.37,2013-11-21 04:22:00,
2013-11-20 22:27:00,46.3,38.5,30.19,ENE,70,3.5,3.5,74,0.00,CLR,FEW,0.00,WeatherDisplay:10.37,2013-11-21 04:27:00,
2013-11-20 22:32:00,46.3,38.8,30.19,East,84,2.3,2.3,75,0.00,CLR,FEW,0.00,WeatherDisplay:10.37,2013-11-21 04:32:00,
2013-11-20 22:37:00,46.4,38.9,30.20,East,100,1.2,1.2,75,0.00,CLR,FEW,0.00,WeatherDisplay:10.37,2013-11-21 04:37:00,
2013-11-20 22:42:00,46.5,38.3,30.20,East,88,1.2,1.2,73,0.00,CLR,FEW,0.00,WeatherDisplay:10.37,2013-11-21 04:42:00,
2013-11-20 22:47:00,46.8,39.6,30.20,East,90,2.3,2.3,76,0.00,CLR,FEW,0.00,WeatherDisplay:10.37,2013-11-21 04:47:00,
2013-11-20 22:52:00,46.7,38.9,30.21,ENE,63,3.5,3.5,74,0.00,CLR,FEW,0.00,WeatherDisplay:10.37,2013-11-21 04:52:00,
2013-11-20 22:57:00,46.6,39.4,30.21,ENE,63,1.2,0.0,76,0.00,CLR,FEW,0.00,WeatherDisplay:10.37,2013-11-21 04:57:00,
2013-11-20 23:01:00,46.5,39.7,30.21,ENE,67,2.3,2.3,77,0.00,CLR,FEW,0.00,WeatherDisplay:10.37,2013-11-21 05:01:00,
2013-11-20 23:06:00,46.4,38.9,30.21,ENE,63,6.9,6.9,75,0.00,CLR,FEW,0.00,WeatherDisplay:10.37,2013-11-21 05:06:00,
2013-11-20 23:11:00,46.5,39.7,30.21,ENE,75,1.2,1.2,77,0.00,CLR,FEW,0.00,WeatherDisplay:10.37,2013-11-21 05:11:00,
2013-11-20 23:16:00,46.4,39.9,30.21,East,88,1.2,1.2,78,0.00,CLR,FEW,0.00,WeatherDisplay:10.37,2013-11-21 05:16:00,
2013-11-20 23:21:00,46.5,40.0,30.21,ENE,77,3.5,3.5,78,0.00,CLR,FEW,0.00,WeatherDisplay:10.37,2013-11-21 05:21:00,
2013-11-20 23:26:00,46.5,39.7,30.21,East,80,3.5,3.5,77,0.00,CLR,FEW,0.00,WeatherDisplay:10.37,2013-11-21 05:26:00,
2013-11-20 23:31:00,46.3,40.5,30.20,ENE,76,2.3,2.3,80,0.00,CLR,FEW,0.00,WeatherDisplay:10.37,2013-11-21 05:31:00,
2013-11-20 23:36:00,46.0,39.9,30.20,East,97,2.3,2.3,79,0.00,CLR,FEW,0.00,WeatherDisplay:10.37,2013-11-21 05:36:00,
2013-11-20 23:41:00,45.8,39.7,30.20,East,96,2.3,2.3,79,0.00,CLR,FEW,0.00,WeatherDisplay:10.37,2013-11-21 05:41:00,
2013-11-20 23:46:00,45.9,39.4,30.20,East,83,2.3,2.3,78,0.00,CLR,FEW,0.00,WeatherDisplay:10.37,2013-11-21 05:46:00,
2013-11-20 23:51:00,46.1,39.6,30.20,East,101,2.3,2.3,78,0.00,CLR,FEW,0.00,WeatherDisplay:10.37,2013-11-21 05:51:00,
2013-11-20 23:56:00,46.3,39.5,30.20,East,101,2.3,2.3,77,0.00,CLR,FEW,0.00,WeatherDisplay:10.37,2013-11-21 05:56:00,
2013-11-20 23:57:00,46.3,39.5,30.20,East,101,2.3,2.3,77,0.00,CLR,FEW,0.00,WeatherDisplay:10.37,2013-11-21 05:57:00,